Terminal Aerodrome Forecast
Issued by NWS Springfield, MO

Home | Current Version | Previous Version | Text Only | Print | Product List | Glossary On
Versions: 1 2 3 4 5 6 7 8 9 10 11 12 13 14 15 16 17 18 19 20 21 22 23
000
FTUS43 KSGF 230500
TAFSGF
TAF
KSGF 230520Z 2306/2406 15010KT P6SM OVC040
     FM231000 14008KT P6SM VCSH SCT020 OVC040
     FM231800 15010KT P6SM BKN040 PROB30 2318/2324 P6SM -TSRA
      OVC040CB
     FM240100 13014KT P6SM SCT040 OVC100=

USA.gov is the U.S. government's official web portal to all federal, state and local government web resources and services.